Ischia Jet — IOBI — position and weather

sailwx.info

Track history (hours):
 
Tides and Currents Weather Stations Pressure Air Temp Water Temp Dewpoint Dewpoint Depression Visibility Wind Speed Wind Dir Waves Ship Positions

Ischia Jet

Last reported at 2015-Aug-30 13:33 UTC. Time now 2015-Aug-30 13:58 UTC.
Position N 40°34' E 014°15'.

Length 42 m; draft 1.2 m.

Type: Passenger vessel. MMSI: 247048700.

Date/timePositionNaut miles runAvg speedWind from/ knotsBaromVisibWave heightAir tempDewpointWater temp
2015-Aug-30 13:33N 40°34' E 014°15'1616.4
2015-Aug-30 12:33N 40°50' E 014°15'0 0.2
2015-Aug-30 11:33N 40°50' E 014°16'1716.8
2015-Aug-30 10:33N 40°33' E 014°14'1 0.6
2015-Aug-30 08:21N 40°34' E 014°16'1113.7
2015-Aug-30 07:32N 40°45' E 014°17'4 0.3
2015-Aug-29 14:33N 40°49' E 014°17'1514.1
2015-Aug-29 13:31N 40°35' E 014°15'6 5.7
2015-Aug-29 12:26N 40°38' E 014°23'8 8.8
2015-Aug-29 11:33N 40°33' E 014°14'8 7.9
2015-Aug-29 10:33N 40°41' E 014°17'9 7.5
2015-Aug-29 09:22N 40°50' E 014°16'1720.8
2015-Aug-29 08:33N 40°33' E 014°14'8 7.3
2015-Aug-29 07:30N 40°38' E 014°23'0 0.0
2015-Aug-29 06:31N 40°38' E 014°23'3 0.2
2015-Aug-28 16:34N 40°40' E 014°24'4 2.1
2015-Aug-28 14:23N 40°37' E 014°29'1214.4
2015-Aug-28 13:33N 40°33' E 014°14'1 0.4
2015-Aug-28 10:13N 40°33' E 014°16'1 0.3
2015-Aug-28 08:03N 40°34' E 014°17'2 3.8
2015-Aug-28 07:32N 40°33' E 014°14'16 0.7
2015-Aug-27 08:18N 40°49' E 014°17'1621.1
2015-Aug-27 07:31N 40°33' E 014°14'1414.0
2015-Aug-27 06:33N 40°42' E 014°28'1 0.7
2015-Aug-27 05:33N 40°42' E 014°29'0 0.0
2015-Aug-26 17:08N 40°42' E 014°29'5 7.8
2015-Aug-26 16:33N 40°39' E 014°23'7 2.4
2015-Aug-26 13:33N 40°35' E 014°16'15 6.8
2015-Aug-26 11:25N 40°49' E 014°17'1618.7
2015-Aug-26 10:33N 40°33' E 014°14'8 3.8
2015-Aug-26 08:20N 40°35' E 014°25'810.6
2015-Aug-26 07:33N 40°33' E 014°14'16 0.8
2015-Aug-25 12:29N 40°49' E 014°17'1616.9
2015-Aug-25 11:32N 40°33' E 014°14'0 0.0
2015-Aug-25 10:28N 40°33' E 014°14'1 1.4
2015-Aug-25 09:33N 40°34' E 014°16'5 5.1
2015-Aug-25 08:33N 40°38' E 014°20'2 1.9
2015-Aug-25 07:33N 40°38' E 014°23'0 0.2
2015-Aug-25 06:33N 40°38' E 014°23'5 0.3
2015-Aug-24 16:33N 40°41' E 014°27'1010.6
2015-Aug-24 15:33N 40°34' E 014°17'2 1.0
2015-Aug-24 13:33N 40°33' E 014°15'1712.6
2015-Aug-24 12:13N 40°50' E 014°15'0 0.2
2015-Aug-24 11:31N 40°50' E 014°16'1716.7
2015-Aug-24 10:30N 40°33' E 014°14'11 5.2
2015-Aug-24 08:30N 40°35' E 014°28'1011.1
2015-Aug-24 07:33N 40°33' E 014°14'10 0.6
2015-Aug-23 15:33N 40°43' E 014°16'1010.1
2015-Aug-23 14:33N 40°33' E 014°14'0 0.3
2015-Aug-23 13:33N 40°34' E 014°14'0 0.0
2015-Aug-23 12:33N 40°34' E 014°14'3 3.4
2015-Aug-23 11:33N 40°36' E 014°18'4 3.8
2015-Aug-23 10:24N 40°38' E 014°23'6 7.1
2015-Aug-23 09:33N 40°34' E 014°16'2 2.0
2015-Aug-23 08:34N 40°36' E 014°17'4 4.2
2015-Aug-23 07:31N 40°38' E 014°23'0 0.0
2015-Aug-23 06:29N 40°38' E 014°23'2 0.1
2015-Aug-22 16:33N 40°39' E 014°24'5 2.0
2015-Aug-22 14:08N 40°35' E 014°25'811.8
2015-Aug-22 13:27N 40°33' E 014°14'8 8.4
2015-Aug-22 12:31N 40°41' E 014°17'8 7.5
2015-Aug-22 11:23N 40°49' E 014°17'1619.1
2015-Aug-22 10:33N 40°33' E 014°14'2 0.7
2015-Aug-22 08:05N 40°34' E 014°17'2 3.2
2015-Aug-22 07:33N 40°33' E 014°14'13 0.8
2015-Aug-21 15:12N 40°42' E 014°29'6 9.5
2015-Aug-21 14:33N 40°38' E 014°22'7 6.5
2015-Aug-21 13:33N 40°34' E 014°15'16 7.5
2015-Aug-21 11:28N 40°49' E 014°17'1617.5
2015-Aug-21 10:33N 40°33' E 014°14'2 2.0
2015-Aug-21 09:32N 40°35' E 014°16'3 3.3
2015-Aug-21 08:33N 40°37' E 014°19'3 2.6
2015-Aug-21 07:29N 40°38' E 014°23'0 0.0
2015-Aug-21 06:25N 40°38' E 014°23'0 0.0
2015-Aug-20 16:28N 40°38' E 014°23'4 1.9
2015-Aug-20 14:13N 40°36' E 014°27'1015.4
2015-Aug-20 13:33N 40°33' E 014°14'  
Track history (hours):
 
Tides and Currents Weather Stations Pressure Air Temp Water Temp Dewpoint Dewpoint Depression Visibility Wind Speed Wind Dir Waves Ship Positions

Ischia Jet

Last reported at 2015-Aug-30 13:33 UTC. Time now 2015-Aug-30 13:58 UTC.
Position N 40°34' E 014°15'.

Length 42 m; draft 1.2 m.

Type: Passenger vessel. MMSI: 247048700.

Date/timePositionNaut miles runAvg speedWind from/ knotsBaromVisibWave heightAir tempDewpointWater temp
2015-Aug-30 13:33N 40°34' E 014°15'1616.4
2015-Aug-30 12:33N 40°50' E 014°15'0 0.2
2015-Aug-30 11:33N 40°50' E 014°16'1716.8
2015-Aug-30 10:33N 40°33' E 014°14'1 0.6
2015-Aug-30 08:21N 40°34' E 014°16'1113.7
2015-Aug-30 07:32N 40°45' E 014°17'4 0.3
2015-Aug-29 14:33N 40°49' E 014°17'1514.1
2015-Aug-29 13:31N 40°35' E 014°15'6 5.7
2015-Aug-29 12:26N 40°38' E 014°23'8 8.8
2015-Aug-29 11:33N 40°33' E 014°14'8 7.9
2015-Aug-29 10:33N 40°41' E 014°17'9 7.5
2015-Aug-29 09:22N 40°50' E 014°16'1720.8
2015-Aug-29 08:33N 40°33' E 014°14'8 7.3
2015-Aug-29 07:30N 40°38' E 014°23'0 0.0
2015-Aug-29 06:31N 40°38' E 014°23'3 0.2
2015-Aug-28 16:34N 40°40' E 014°24'4 2.1
2015-Aug-28 14:23N 40°37' E 014°29'1214.4
2015-Aug-28 13:33N 40°33' E 014°14'1 0.4
2015-Aug-28 10:13N 40°33' E 014°16'1 0.3
2015-Aug-28 08:03N 40°34' E 014°17'2 3.8
2015-Aug-28 07:32N 40°33' E 014°14'16 0.7
2015-Aug-27 08:18N 40°49' E 014°17'1621.1
2015-Aug-27 07:31N 40°33' E 014°14'1414.0
2015-Aug-27 06:33N 40°42' E 014°28'1 0.7
2015-Aug-27 05:33N 40°42' E 014°29'0 0.0
2015-Aug-26 17:08N 40°42' E 014°29'5 7.8
2015-Aug-26 16:33N 40°39' E 014°23'7 2.4
2015-Aug-26 13:33N 40°35' E 014°16'15 6.8
2015-Aug-26 11:25N 40°49' E 014°17'1618.7
2015-Aug-26 10:33N 40°33' E 014°14'8 3.8
2015-Aug-26 08:20N 40°35' E 014°25'810.6
2015-Aug-26 07:33N 40°33' E 014°14'16 0.8
2015-Aug-25 12:29N 40°49' E 014°17'1616.9
2015-Aug-25 11:32N 40°33' E 014°14'0 0.0
2015-Aug-25 10:28N 40°33' E 014°14'1 1.4
2015-Aug-25 09:33N 40°34' E 014°16'5 5.1
2015-Aug-25 08:33N 40°38' E 014°20'2 1.9
2015-Aug-25 07:33N 40°38' E 014°23'0 0.2
2015-Aug-25 06:33N 40°38' E 014°23'5 0.3
2015-Aug-24 16:33N 40°41' E 014°27'1010.6
2015-Aug-24 15:33N 40°34' E 014°17'2 1.0
2015-Aug-24 13:33N 40°33' E 014°15'1712.6
2015-Aug-24 12:13N 40°50' E 014°15'0 0.2
2015-Aug-24 11:31N 40°50' E 014°16'1716.7
2015-Aug-24 10:30N 40°33' E 014°14'11 5.2
2015-Aug-24 08:30N 40°35' E 014°28'1011.1
2015-Aug-24 07:33N 40°33' E 014°14'10 0.6
2015-Aug-23 15:33N 40°43' E 014°16'1010.1
2015-Aug-23 14:33N 40°33' E 014°14'0 0.3
2015-Aug-23 13:33N 40°34' E 014°14'0 0.0
2015-Aug-23 12:33N 40°34' E 014°14'3 3.4
2015-Aug-23 11:33N 40°36' E 014°18'4 3.8
2015-Aug-23 10:24N 40°38' E 014°23'6 7.1
2015-Aug-23 09:33N 40°34' E 014°16'2 2.0
2015-Aug-23 08:34N 40°36' E 014°17'4 4.2
2015-Aug-23 07:31N 40°38' E 014°23'0 0.0
2015-Aug-23 06:29N 40°38' E 014°23'2 0.1
2015-Aug-22 16:33N 40°39' E 014°24'5 2.0
2015-Aug-22 14:08N 40°35' E 014°25'811.8
2015-Aug-22 13:27N 40°33' E 014°14'8 8.4
2015-Aug-22 12:31N 40°41' E 014°17'8 7.5
2015-Aug-22 11:23N 40°49' E 014°17'1619.1
2015-Aug-22 10:33N 40°33' E 014°14'2 0.7
2015-Aug-22 08:05N 40°34' E 014°17'2 3.2
2015-Aug-22 07:33N 40°33' E 014°14'13 0.8
2015-Aug-21 15:12N 40°42' E 014°29'6 9.5
2015-Aug-21 14:33N 40°38' E 014°22'7 6.5
2015-Aug-21 13:33N 40°34' E 014°15'16 7.5
2015-Aug-21 11:28N 40°49' E 014°17'1617.5
2015-Aug-21 10:33N 40°33' E 014°14'2 2.0
2015-Aug-21 09:32N 40°35' E 014°16'3 3.3
2015-Aug-21 08:33N 40°37' E 014°19'3 2.6
2015-Aug-21 07:29N 40°38' E 014°23'0 0.0
2015-Aug-21 06:25N 40°38' E 014°23'0 0.0
2015-Aug-20 16:28N 40°38' E 014°23'4 1.9
2015-Aug-20 14:13N 40°36' E 014°27'1015.4
2015-Aug-20 13:33N 40°33' E 014°14'  

Dump ship's entire track history